sensor_id;sensor_type;location;lat;lon;timestamp;pressure;altitude;pressure_sealevel;temperature;humidity
6020;BME280;3038;51.122;6.840;2024-03-23T00:53:10;100609.06;;;7.07;100.00
6020;BME280;3038;51.122;6.840;2024-03-23T00:55:35;100606.28;;;6.99;100.00
6020;BME280;3038;51.122;6.840;2024-03-23T00:58:01;100612.13;;;7.03;100.00
6020;BME280;3038;51.122;6.840;2024-03-23T01:00:26;100614.47;;;6.96;100.00
6020;BME280;3038;51.122;6.840;2024-03-23T01:02:51;100612.38;;;7.00;100.00
6020;BME280;3038;51.122;6.840;2024-03-23T01:05:17;100610.56;;;6.90;100.00
6020;BME280;3038;51.122;6.840;2024-03-23T01:07:42;100598.22;;;6.91;100.00
6020;BME280;3038;51.122;6.840;2024-03-23T01:10:08;100592.94;;;6.91;100.00
6020;BME280;3038;51.122;6.840;2024-03-23T01:12:33;100589.03;;;6.95;100.00
6020;BME280;3038;51.122;6.840;2024-03-23T01:14:59;100599.06;;;7.01;100.00
6020;BME280;3038;51.122;6.840;2024-03-23T01:17:24;100580.59;;;7.01;100.00
6020;BME280;3038;51.122;6.840;2024-03-23T01:19:49;100585.31;;;6.98;100.00
6020;BME280;3038;51.122;6.840;2024-03-23T01:22:15;100574.34;;;7.02;100.00
6020;BME280;3038;51.122;6.840;2024-03-23T01:24:40;100593.50;;;7.04;100.00
6020;BME280;3038;51.122;6.840;2024-03-23T01:27:05;100591.56;;;7.06;100.00
6020;BME280;3038;51.122;6.840;2024-03-23T01:29:31;100591.25;;;7.09;100.00
6020;BME280;3038;51.122;6.840;2024-03-23T01:31:56;100582.38;;;7.10;100.00
6020;BME280;3038;51.122;6.840;2024-03-23T01:34:22;100584.31;;;7.08;100.00
6020;BME280;3038;51.122;6.840;2024-03-23T01:36:47;100582.38;;;7.10;100.00
6020;BME280;3038;51.122;6.840;2024-03-23T01:39:13;100585.97;;;7.09;100.00
6020;BME280;3038;51.122;6.840;2024-03-23T01:41:40;100595.16;;;7.15;100.00
6020;BME280;3038;51.122;6.840;2024-03-23T01:44:08;100591.66;;;7.14;100.00
6020;BME280;3038;51.122;6.840;2024-03-23T01:46:35;100583.22;;;7.11;100.00
6020;BME280;3038;51.122;6.840;2024-03-23T01:49:02;100583.91;;;7.03;100.00
6020;BME280;3038;51.122;6.840;2024-03-23T01:51:28;100591.84;;;7.03;100.00
6020;BME280;3038;51.122;6.840;2024-03-23T01:53:54;100594.06;;;6.98;100.00
6020;BME280;3038;51.122;6.840;2024-03-23T01:56:20;100599.50;;;6.87;100.00
6020;BME280;3038;51.122;6.840;2024-03-23T01:58:46;100593.66;;;6.74;100.00
6020;BME280;3038;51.122;6.840;2024-03-23T02:01:11;100597.25;;;6.53;100.00
6020;BME280;3038;51.122;6.840;2024-03-23T02:03:37;100595.84;;;6.49;100.00
6020;BME280;3038;51.122;6.840;2024-03-23T02:06:02;100583.47;;;6.50;100.00
6020;BME280;3038;51.122;6.840;2024-03-23T02:08:28;100584.56;;;6.47;100.00
6020;BME280;3038;51.122;6.840;2024-03-23T02:10:54;100577.63;;;6.46;100.00
6020;BME280;3038;51.122;6.840;2024-03-23T02:13:19;100578.47;;;6.47;100.00
6020;BME280;3038;51.122;6.840;2024-03-23T02:15:45;100579.31;;;6.47;100.00
6020;BME280;3038;51.122;6.840;2024-03-23T02:18:10;100579.03;;;6.50;100.00
6020;BME280;3038;51.122;6.840;2024-03-23T02:20:36;100577.63;;;6.46;100.00
6020;BME280;3038;51.122;6.840;2024-03-23T02:23:03;100571.28;;;6.49;100.00
6020;BME280;3038;51.122;6.840;2024-03-23T02:25:28;100576.13;;;6.53;100.00
6020;BME280;3038;51.122;6.840;2024-03-23T02:27:53;100572.09;;;6.49;100.00
6020;BME280;3038;51.122;6.840;2024-03-23T02:30:20;100568.50;;;6.50;100.00
6020;BME280;3038;51.122;6.840;2024-03-23T02:32:45;100563.38;;;6.58;100.00
6020;BME280;3038;51.122;6.840;2024-03-23T02:35:11;100564.47;;;6.65;100.00
6020;BME280;3038;51.122;6.840;2024-03-23T02:37:36;100571.28;;;6.68;100.00
6020;BME280;3038;51.122;6.840;2024-03-23T02:40:02;100577.41;;;6.68;100.00
6020;BME280;3038;51.122;6.840;2024-03-23T02:42:27;100585.41;;;6.57;100.00
6020;BME280;3038;51.122;6.840;2024-03-23T02:44:54;100586.25;;;6.48;100.00
6020;BME280;3038;51.122;6.840;2024-03-23T02:47:19;100584.56;;;6.47;100.00
6020;BME280;3038;51.122;6.840;2024-03-23T02:49:44;100581.69;;;6.50;100.00
6020;BME280;3038;51.122;6.840;2024-03-23T02:52:10;100589.84;;;6.47;100.00
6020;BME280;3038;51.122;6.840;2024-03-23T02:54:35;100580.13;;;6.38;100.00
6020;BME280;3038;51.122;6.840;2024-03-23T02:57:01;100584.31;;;6.40;100.00
6020;BME280;3038;51.122;6.840;2024-03-23T02:59:26;100585.41;;;6.48;100.00
6020;BME280;3038;51.122;6.840;2024-03-23T03:01:51;100573.19;;;6.47;100.00
6020;BME280;3038;51.122;6.840;2024-03-23T03:04:17;100581.25;;;6.45;100.00
6020;BME280;3038;51.122;6.840;2024-03-23T03:06:46;100577.50;;;6.48;100.00
6020;BME280;3038;51.122;6.840;2024-03-23T03:09:12;100576.25;;;6.52;100.00
6020;BME280;3038;51.122;6.840;2024-03-23T03:11:37;100570.16;;;6.51;100.00
6020;BME280;3038;51.122;6.840;2024-03-23T03:14:02;100570.44;;;6.48;100.00
6020;BME280;3038;51.122;6.840;2024-03-23T03:16:28;100561.56;;;6.49;100.00
6020;BME280;3038;51.122;6.840;2024-03-23T03:18:54;100542.13;;;6.50;100.00
6020;BME280;3038;51.122;6.840;2024-03-23T03:21:19;100541.03;;;6.53;100.00
6020;BME280;3038;51.122;6.840;2024-03-23T03:23:44;100554.31;;;6.51;100.00
6020;BME280;3038;51.122;6.840;2024-03-23T03:26:10;100568.75;;;6.47;100.00
6020;BME280;3038;51.122;6.840;2024-03-23T03:28:35;100573.19;;;6.47;100.00
6020;BME280;3038;51.122;6.840;2024-03-23T03:31:01;100562.38;;;6.40;100.00
6020;BME280;3038;51.122;6.840;2024-03-23T03:33:27;100557.34;;;6.37;100.00
6020;BME280;3038;51.122;6.840;2024-03-23T03:35:52;100562.22;;;6.32;100.00
6020;BME280;3038;51.122;6.840;2024-03-23T03:38:18;100563.75;;;6.34;100.00
6020;BME280;3038;51.122;6.840;2024-03-23T03:40:44;100575.69;;;6.38;100.00
6020;BME280;3038;51.122;6.840;2024-03-23T03:43:09;100577.91;;;6.43;100.00
6020;BME280;3038;51.122;6.840;2024-03-23T03:45:35;100569.31;;;6.41;100.00
6020;BME280;3038;51.122;6.840;2024-03-23T03:48:00;100565.28;;;6.37;100.00
6020;BME280;3038;51.122;6.840;2024-03-23T03:50:26;100573.06;;;6.38;100.00
6020;BME280;3038;51.122;6.840;2024-03-23T03:52:51;100575.69;;;6.38;100.00
6020;BME280;3038;51.122;6.840;2024-03-23T03:55:17;100575.56;;;6.40;100.00
6020;BME280;3038;51.122;6.840;2024-03-23T03:57:42;100570.84;;;6.34;100.00
6020;BME280;3038;51.122;6.840;2024-03-23T04:00:08;100563.19;;;6.31;100.00
6020;BME280;3038;51.122;6.840;2024-03-23T04:02:39;100561.53;;;6.30;100.00
6020;BME280;3038;51.122;6.840;2024-03-23T04:05:06;100561.63;;;6.28;100.00
6020;BME280;3038;51.122;6.840;2024-03-23T04:07:31;100560.38;;;6.23;100.00
6020;BME280;3038;51.122;6.840;2024-03-23T04:09:57;100566.91;;;6.18;100.00
6020;BME280;3038;51.122;6.840;2024-03-23T04:12:23;100571.22;;;6.20;100.00
6020;BME280;3038;51.122;6.840;2024-03-23T04:14:48;100572.88;;;6.21;100.00
6020;BME280;3038;51.122;6.840;2024-03-23T04:17:14;100568.88;;;6.26;100.00
6020;BME280;3038;51.122;6.840;2024-03-23T04:19:39;100564.03;;;6.31;100.00
6020;BME280;3038;51.122;6.840;2024-03-23T04:22:04;100560.97;;;6.36;100.00
6020;BME280;3038;51.122;6.840;2024-03-23T04:24:30;100564.28;;;6.38;100.00
6020;BME280;3038;51.122;6.840;2024-03-23T04:26:55;100555.44;;;6.39;100.00
6020;BME280;3038;51.122;6.840;2024-03-23T04:29:21;100563.34;;;6.39;100.00
6020;BME280;3038;51.122;6.840;2024-03-23T04:31:46;100559.03;;;6.38;100.00
6020;BME280;3038;51.122;6.840;2024-03-23T04:34:13;100560.72;;;6.39;100.00
6020;BME280;3038;51.122;6.840;2024-03-23T04:36:38;100565.16;;;6.38;100.00
6020;BME280;3038;51.122;6.840;2024-03-23T04:39:03;100576.25;;;6.42;100.00
6020;BME280;3038;51.122;6.840;2024-03-23T04:41:29;100575.81;;;6.37;100.00
6020;BME280;3038;51.122;6.840;2024-03-23T04:43:55;100572.19;;;6.38;100.00
6020;BME280;3038;51.122;6.840;2024-03-23T04:46:20;100574.72;;;6.39;100.00
6020;BME280;3038;51.122;6.840;2024-03-23T04:48:46;100568.22;;;6.43;100.00
6020;BME280;3038;51.122;6.840;2024-03-23T04:51:20;100577.38;;;6.49;100.00
6020;BME280;3038;51.122;6.840;2024-03-23T04:53:46;100573.19;;;6.47;100.00
6020;BME280;3038;51.122;6.840;2024-03-23T04:56:11;100569.72;;;6.46;100.00
6020;BME280;3038;51.122;6.840;2024-03-23T04:58:37;100561.81;;;6.46;100.00
6020;BME280;3038;51.122;6.840;2024-03-23T05:01:02;100568.91;;;6.55;100.00
6020;BME280;3038;51.122;6.840;2024-03-23T05:03:27;100562.97;;;6.63;100.00
6020;BME280;3038;51.122;6.840;2024-03-23T05:05:53;100556.13;;;6.60;100.00
6020;BME280;3038;51.122;6.840;2024-03-23T05:08:18;100561.97;;;6.54;100.00
6020;BME280;3038;51.122;6.840;2024-03-23T05:10:43;100568.91;;;6.55;100.00
6020;BME280;3038;51.122;6.840;2024-03-23T05:13:09;100569.06;;;6.54;100.00
6020;BME280;3038;51.122;6.840;2024-03-23T05:15:35;100577.22;;;6.41;100.00
6020;BME280;3038;51.122;6.840;2024-03-23T05:18:00;100579.56;;;6.34;100.00
6020;BME280;3038;51.122;6.840;2024-03-23T05:20:26;100575.69;;;6.29;100.00
6020;BME280;3038;51.122;6.840;2024-03-23T05:22:51;100580.09;;;6.28;100.00
6020;BME280;3038;51.122;6.840;2024-03-23T05:25:16;100584.13;;;6.32;100.00
6020;BME280;3038;51.122;6.840;2024-03-23T05:27:42;100585.78;;;6.24;100.00
6020;BME280;3038;51.122;6.840;2024-03-23T05:30:08;100593.41;;;6.17;100.00
6020;BME280;3038;51.122;6.840;2024-03-23T05:32:34;100582.03;;;6.16;100.00
6020;BME280;3038;51.122;6.840;2024-03-23T05:34:59;100577.00;;;6.13;100.00
6020;BME280;3038;51.122;6.840;2024-03-23T05:37:25;100573.00;;;6.09;100.00
6020;BME280;3038;51.122;6.840;2024-03-23T05:39:51;100577.00;;;6.13;100.00
6020;BME280;3038;51.122;6.840;2024-03-23T05:42:17;100576.50;;;6.20;100.00
6020;BME280;3038;51.122;6.840;2024-03-23T05:44:46;100575.94;;;6.26;100.00
6020;BME280;3038;51.122;6.840;2024-03-23T05:47:12;100580.66;;;6.32;100.00
6020;BME280;3038;51.122;6.840;2024-03-23T05:49:42;100578.47;;;6.37;100.00
6020;BME280;3038;51.122;6.840;2024-03-23T05:52:08;100577.06;;;6.42;100.00
6020;BME280;3038;51.122;6.840;2024-03-23T05:54:34;100588.34;;;6.44;100.00
6020;BME280;3038;51.122;6.840;2024-03-23T05:56:59;100591.81;;;6.45;100.00
6020;BME280;3038;51.122;6.840;2024-03-23T05:59:24;100595.69;;;6.41;100.00
6020;BME280;3038;51.122;6.840;2024-03-23T06:01:50;100587.19;;;6.28;100.00
6020;BME280;3038;51.122;6.840;2024-03-23T06:04:15;100588.16;;;6.27;100.00
6020;BME280;3038;51.122;6.840;2024-03-23T06:06:41;100597.19;;;6.24;100.00
6020;BME280;3038;51.122;6.840;2024-03-23T06:09:06;100592.19;;;6.31;100.00
6020;BME280;3038;51.122;6.840;2024-03-23T06:11:31;100593.69;;;6.33;100.00
6020;BME280;3038;51.122;6.840;2024-03-23T06:13:57;100592.63;;;6.36;100.00
6020;BME280;3038;51.122;6.840;2024-03-23T06:16:22;100598.56;;;6.38;100.00
6020;BME280;3038;51.122;6.840;2024-03-23T06:18:52;100597.63;;;6.39;100.00
6020;BME280;3038;51.122;6.840;2024-03-23T06:21:17;100597.63;;;6.39;100.00
6020;BME280;3038;51.122;6.840;2024-03-23T06:23:43;100604.72;;;6.38;100.00
6020;BME280;3038;51.122;6.840;2024-03-23T06:26:13;100601.06;;;6.30;100.00
6020;BME280;3038;51.122;6.840;2024-03-23T06:28:39;100604.94;;;6.26;100.00
6020;BME280;3038;51.122;6.840;2024-03-23T06:31:09;100596.75;;;6.19;100.00
6020;BME280;3038;51.122;6.840;2024-03-23T06:33:34;100593.41;;;6.17;100.00
6020;BME280;3038;51.122;6.840;2024-03-23T06:36:00;100596.19;;;6.15;100.00
6020;BME280;3038;51.122;6.840;2024-03-23T06:38:25;100598.81;;;6.15;100.00
6020;BME280;3038;51.122;6.840;2024-03-23T06:40:50;100603.13;;;6.16;100.00
6020;BME280;3038;51.122;6.840;2024-03-23T06:43:18;100603.94;;;6.17;100.00
6020;BME280;3038;51.122;6.840;2024-03-23T06:45:43;100600.91;;;6.22;100.00
6020;BME280;3038;51.122;6.840;2024-03-23T06:48:09;100605.78;;;6.26;100.00
6020;BME280;3038;51.122;6.840;2024-03-23T06:50:34;100600.94;;;6.31;100.00
6020;BME280;3038;51.122;6.840;2024-03-23T06:52:59;100602.34;;;6.35;100.00
6020;BME280;3038;51.122;6.840;2024-03-23T06:55:27;100607.19;;;6.40;100.00
6020;BME280;3038;51.122;6.840;2024-03-23T06:57:53;100596.38;;;6.43;100.00
6020;BME280;3038;51.122;6.840;2024-03-23T07:00:18;100607.06;;;6.51;100.00
6020;BME280;3038;51.122;6.840;2024-03-23T07:02:44;100616.81;;;6.60;100.00
6020;BME280;3038;51.122;6.840;2024-03-23T07:05:10;100613.91;;;6.63;100.00
6020;BME280;3038;51.122;6.840;2024-03-23T07:07:36;100613.50;;;6.68;100.00
6020;BME280;3038;51.122;6.840;2024-03-23T07:10:02;100618.38;;;6.73;100.00
6020;BME280;3038;51.122;6.840;2024-03-23T07:12:28;100625.72;;;6.79;100.00
6020;BME280;3038;51.122;6.840;2024-03-23T07:14:53;100626.81;;;6.86;100.00
6020;BME280;3038;51.122;6.840;2024-03-23T07:17:19;100615.75;;;6.92;100.00
6020;BME280;3038;51.122;6.840;2024-03-23T07:19:44;100625.03;;;6.96;100.00
6020;BME280;3038;51.122;6.840;2024-03-23T07:22:09;100611.56;;;6.99;100.00
6020;BME280;3038;51.122;6.840;2024-03-23T07:24:35;100616.28;;;7.05;100.00
6020;BME280;3038;51.122;6.840;2024-03-23T07:27:01;100617.66;;;7.19;100.00
6020;BME280;3038;51.122;6.840;2024-03-23T07:29:28;100620.84;;;7.22;100.00
6020;BME280;3038;51.122;6.840;2024-03-23T07:31:53;100621.53;;;7.25;100.00
6020;BME280;3038;51.122;6.840;2024-03-23T07:34:19;100626.28;;;7.31;100.00
6020;BME280;3038;51.122;6.840;2024-03-23T07:36:45;100626.81;;;7.34;100.00
6020;BME280;3038;51.122;6.840;2024-03-23T07:39:10;100635.69;;;7.43;100.00
6020;BME280;3038;51.122;6.840;2024-03-23T07:41:36;100629.00;;;7.58;100.00
6020;BME280;3038;51.122;6.840;2024-03-23T07:44:02;100632.03;;;7.63;100.00
6020;BME280;3038;51.122;6.840;2024-03-23T07:46:27;100629.78;;;7.68;100.00
6020;BME280;3038;51.122;6.840;2024-03-23T07:48:52;100616.69;;;7.77;100.00
6020;BME280;3038;51.122;6.840;2024-03-23T07:51:22;100629.25;;;7.75;100.00
6020;BME280;3038;51.122;6.840;2024-03-23T07:53:48;100624.91;;;7.73;100.00
6020;BME280;3038;51.122;6.840;2024-03-23T07:56:17;100627.13;;;7.78;100.00
6020;BME280;3038;51.122;6.840;2024-03-23T07:58:47;100618.59;;;7.94;100.00
6020;BME280;3038;51.122;6.840;2024-03-23T08:01:14;100624.56;;;7.96;100.00
6020;BME280;3038;51.122;6.840;2024-03-23T08:03:41;100615.53;;;7.98;100.00
6020;BME280;3038;51.122;6.840;2024-03-23T08:06:14;100609.81;;;8.03;100.00
6020;BME280;3038;51.122;6.840;2024-03-23T08:08:42;100615.31;;;8.10;100.00
6020;BME280;3038;51.122;6.840;2024-03-23T08:11:08;100614.28;;;8.20;100.00
6020;BME280;3038;51.122;6.840;2024-03-23T08:13:34;100622.06;;;8.32;100.00
6020;BME280;3038;51.122;6.840;2024-03-23T08:16:01;100619.22;;;8.43;100.00
6020;BME280;3038;51.122;6.840;2024-03-23T08:18:27;100619.00;;;8.54;100.00
6020;BME280;3038;51.122;6.840;2024-03-23T08:21:00;100618.03;;;8.73;100.00
6020;BME280;3038;51.122;6.840;2024-03-23T08:23:27;100617.22;;;8.90;100.00
6020;BME280;3038;51.122;6.840;2024-03-23T08:26:04;100628.78;;;9.07;99.28
6020;BME280;3038;51.122;6.840;2024-03-23T08:28:30;100620.38;;;8.94;95.91
6020;BME280;3038;51.122;6.840;2024-03-23T08:30:56;100617.91;;;9.10;100.00
6020;BME280;3038;51.122;6.840;2024-03-23T08:33:22;100624.69;;;9.31;100.00
6020;BME280;3038;51.122;6.840;2024-03-23T08:36:02;100626.03;;;9.35;100.00
6020;BME280;3038;51.122;6.840;2024-03-23T08:38:28;100628.88;;;9.59;100.00
6020;BME280;3038;51.122;6.840;2024-03-23T08:40:59;100622.84;;;9.49;94.33
6020;BME280;3038;51.122;6.840;2024-03-23T08:43:25;100624.50;;;9.50;94.37
6020;BME280;3038;51.122;6.840;2024-03-23T08:45:51;100618.16;;;9.43;87.95
6020;BME280;3038;51.122;6.840;2024-03-23T08:48:18;100622.53;;;9.78;97.09
6020;BME280;3038;51.122;6.840;2024-03-23T08:50:45;100632.44;;;10.02;94.32
6020;BME280;3038;51.122;6.840;2024-03-23T08:53:11;100637.03;;;9.92;92.55
6020;BME280;3038;51.122;6.840;2024-03-23T08:55:36;100633.75;;;9.72;93.41
6020;BME280;3038;51.122;6.840;2024-03-23T08:58:02;100633.13;;;9.78;94.42
6020;BME280;3038;51.122;6.840;2024-03-23T09:00:27;100632.91;;;9.97;94.99
6020;BME280;3038;51.122;6.840;2024-03-23T09:02:52;100614.03;;;10.43;94.38
6020;BME280;3038;51.122;6.840;2024-03-23T09:05:18;100627.59;;;10.32;88.11
6020;BME280;3038;51.122;6.840;2024-03-23T09:07:44;100640.41;;;10.10;86.91
6020;BME280;3038;51.122;6.840;2024-03-23T09:10:09;100637.50;;;9.87;84.53
6020;BME280;3038;51.122;6.840;2024-03-23T09:12:35;100634.72;;;9.71;85.17
6020;BME280;3038;51.122;6.840;2024-03-23T09:15:00;100637.38;;;9.71;87.02
6020;BME280;3038;51.122;6.840;2024-03-23T09:17:25;100639.63;;;9.84;85.26
6020;BME280;3038;51.122;6.840;2024-03-23T09:19:51;100638.31;;;9.88;81.38
6020;BME280;3038;51.122;6.840;2024-03-23T09:22:16;100645.78;;;9.66;82.55
6020;BME280;3038;51.122;6.840;2024-03-23T09:24:42;100642.47;;;9.64;84.06
6020;BME280;3038;51.122;6.840;2024-03-23T09:27:07;100632.28;;;9.51;83.41
6020;BME280;3038;51.122;6.840;2024-03-23T09:29:32;100642.06;;;9.51;82.06
6020;BME280;3038;51.122;6.840;2024-03-23T09:31:58;100639.06;;;9.72;82.31
6020;BME280;3038;51.122;6.840;2024-03-23T09:34:23;100627.25;;;9.92;82.83
6020;BME280;3038;51.122;6.840;2024-03-23T09:36:52;100628.72;;;9.95;83.21
6020;BME280;3038;51.122;6.840;2024-03-23T09:39:18;100622.28;;;9.63;81.69
6020;BME280;3038;51.122;6.840;2024-03-23T09:41:44;100621.53;;;9.53;81.99
6020;BME280;3038;51.122;6.840;2024-03-23T09:44:10;100608.69;;;9.66;82.94
6020;BME280;3038;51.122;6.840;2024-03-23T09:46:35;100615.94;;;9.90;82.72
6020;BME280;3038;51.122;6.840;2024-03-23T09:49:02;100607.88;;;10.00;83.48
6020;BME280;3038;51.122;6.840;2024-03-23T09:51:30;100614.81;;;10.27;79.67
6020;BME280;3038;51.122;6.840;2024-03-23T09:53:56;100618.03;;;10.47;78.59
6020;BME280;3038;51.122;6.840;2024-03-23T09:56:22;100608.38;;;10.38;77.11
6020;BME280;3038;51.122;6.840;2024-03-23T09:58:49;100611.63;;;10.23;77.03
6020;BME280;3038;51.122;6.840;2024-03-23T10:01:14;100612.03;;;10.37;78.25
6020;BME280;3038;51.122;6.840;2024-03-23T10:03:44;100618.63;;;10.24;75.62
6020;BME280;3038;51.122;6.840;2024-03-23T10:06:10;100621.47;;;10.05;77.26
6020;BME280;3038;51.122;6.840;2024-03-23T10:08:36;100609.78;;;9.82;74.29
6020;BME280;3038;51.122;6.840;2024-03-23T10:11:15;100619.91;;;9.60;70.05
6020;BME280;3038;51.122;6.840;2024-03-23T10:13:44;100609.13;;;11.62;69.49
6020;BME280;3038;51.122;6.840;2024-03-23T10:16:11;100607.09;;;11.89;65.08
6020;BME280;3038;51.122;6.840;2024-03-23T10:18:38;100610.81;;;10.90;70.20
6020;BME280;3038;51.122;6.840;2024-03-23T10:23:33;100606.78;;;11.59;66.73
6020;BME280;3038;51.122;6.840;2024-03-23T10:26:15;100613.47;;;10.90;63.62
6020;BME280;3038;51.122;6.840;2024-03-23T10:29:00;100618.69;;;10.41;68.72
6020;BME280;3038;51.122;6.840;2024-03-23T10:31:33;100625.63;;;8.86;78.76
6020;BME280;3038;51.122;6.840;2024-03-23T10:34:02;100612.72;;;8.55;82.65
6020;BME280;3038;51.122;6.840;2024-03-23T10:36:29;100602.88;;;9.63;80.04
6020;BME280;3038;51.122;6.840;2024-03-23T10:38:55;100614.59;;;11.69;73.10
6020;BME280;3038;51.122;6.840;2024-03-23T10:41:21;100617.78;;;11.56;71.75
6020;BME280;3038;51.122;6.840;2024-03-23T10:43:48;100620.63;;;11.05;75.16
6020;BME280;3038;51.122;6.840;2024-03-23T10:46:14;100623.38;;;10.55;71.16
6020;BME280;3038;51.122;6.840;2024-03-23T10:48:39;100647.88;;;10.15;72.12
6020;BME280;3038;51.122;6.840;2024-03-23T10:51:07;100639.81;;;9.64;72.53
6020;BME280;3038;51.122;6.840;2024-03-23T10:53:33;100653.56;;;9.42;74.93
6020;BME280;3038;51.122;6.840;2024-03-23T10:55:59;100657.69;;;9.18;74.31
6020;BME280;3038;51.122;6.840;2024-03-23T10:58:39;100656.09;;;8.72;72.84
6020;BME280;3038;51.122;6.840;2024-03-23T11:01:05;100671.31;;;8.33;77.39
6020;BME280;3038;51.122;6.840;2024-03-23T11:03:38;100705.38;;;8.08;78.96
6020;BME280;3038;51.122;6.840;2024-03-23T11:06:05;100706.84;;;7.54;80.29
6020;BME280;3038;51.122;6.840;2024-03-23T11:11:21;100691.50;;;6.21;88.74
6020;BME280;3038;51.122;6.840;2024-03-23T11:13:54;100668.63;;;6.21;93.28
6020;BME280;3038;51.122;6.840;2024-03-23T11:16:27;100667.69;;;7.20;90.72
6020;BME280;3038;51.122;6.840;2024-03-23T11:21:59;100648.75;;;6.77;91.23
6020;BME280;3038;51.122;6.840;2024-03-23T11:24:25;100646.69;;;6.90;91.15
6020;BME280;3038;51.122;6.840;2024-03-23T11:26:50;100642.13;;;7.11;91.51
6020;BME280;3038;51.122;6.840;2024-03-23T11:29:16;100647.94;;;7.34;88.21
6020;BME280;3038;51.122;6.840;2024-03-23T11:31:53;100633.00;;;8.64;81.55
6020;BME280;3038;51.122;6.840;2024-03-23T11:34:19;100624.81;;;10.41;78.67
6020;BME280;3038;51.122;6.840;2024-03-23T11:36:45;100621.63;;;13.63;65.75
6020;BME280;3038;51.122;6.840;2024-03-23T11:39:15;100620.00;;;15.92;60.55
6020;BME280;3038;51.122;6.840;2024-03-23T11:41:52;100620.22;;;17.07;52.52
6020;BME280;3038;51.122;6.840;2024-03-23T11:44:22;100621.66;;;17.82;49.92
6020;BME280;3038;51.122;6.840;2024-03-23T11:46:49;100624.31;;;18.54;55.09
6020;BME280;3038;51.122;6.840;2024-03-23T11:49:28;100611.88;;;18.59;44.28
6020;BME280;3038;51.122;6.840;2024-03-23T11:51:55;100607.31;;;19.23;50.54
6020;BME280;3038;51.122;6.840;2024-03-23T11:54:22;100607.66;;;19.83;49.37
6020;BME280;3038;51.122;6.840;2024-03-23T11:57:07;100600.81;;;20.84;42.35
6020;BME280;3038;51.122;6.840;2024-03-23T11:59:40;100597.34;;;21.19;40.58
6020;BME280;3038;51.122;6.840;2024-03-23T12:02:10;100597.09;;;21.20;40.69
6020;BME280;3038;51.122;6.840;2024-03-23T12:04:36;100599.09;;;21.13;42.90
6020;BME280;3038;51.122;6.840;2024-03-23T12:07:13;100654.00;;;15.42;46.86
6020;BME280;3038;51.122;6.840;2024-03-23T12:09:40;100666.97;;;11.27;56.65
6020;BME280;3038;51.122;6.840;2024-03-23T12:12:16;100686.66;;;8.84;71.14
6020;BME280;3038;51.122;6.840;2024-03-23T12:14:45;100676.44;;;7.97;73.48
6020;BME280;3038;51.122;6.840;2024-03-23T12:17:25;100664.03;;;8.07;72.99
6020;BME280;3038;51.122;6.840;2024-03-23T12:19:51;100658.50;;;7.34;80.40
6020;BME280;3038;51.122;6.840;2024-03-23T12:22:20;100655.19;;;6.93;84.19
6020;BME280;3038;51.122;6.840;2024-03-23T12:24:45;100657.97;;;6.92;84.98
6020;BME280;3038;51.122;6.840;2024-03-23T12:27:11;100660.47;;;7.22;87.12
6020;BME280;3038;51.122;6.840;2024-03-23T12:29:36;100666.72;;;7.21;89.26
6020;BME280;3038;51.122;6.840;2024-03-23T12:32:04;100669.88;;;6.96;88.28
6020;BME280;3038;51.122;6.840;2024-03-23T12:34:30;100668.22;;;6.85;88.50
6020;BME280;3038;51.122;6.840;2024-03-23T12:36:55;100664.59;;;6.77;88.97
6020;BME280;3038;51.122;6.840;2024-03-23T12:39:21;100644.19;;;6.19;87.63
6020;BME280;3038;51.122;6.840;2024-03-23T12:41:47;100640.44;;;5.91;88.83
6020;BME280;3038;51.122;6.840;2024-03-23T12:44:13;100627.88;;;6.04;87.36
6020;BME280;3038;51.122;6.840;2024-03-23T12:46:39;100620.03;;;6.24;89.35
6020;BME280;3038;51.122;6.840;2024-03-23T12:49:04;100632.66;;;6.99;86.76
6020;BME280;3038;51.122;6.840;2024-03-23T12:51:30;100621.03;;;8.60;83.43
6020;BME280;3038;51.122;6.840;2024-03-23T12:53:56;100618.44;;;11.66;75.69
6020;BME280;3038;51.122;6.840;2024-03-23T12:56:21;100614.59;;;12.86;66.57
6020;BME280;3038;51.122;6.840;2024-03-23T12:58:47;100618.16;;;13.77;63.18
6020;BME280;3038;51.122;6.840;2024-03-23T13:01:19;100614.00;;;15.13;59.59
6020;BME280;3038;51.122;6.840;2024-03-23T13:03:46;100604.50;;;16.29;55.03
6020;BME280;3038;51.122;6.840;2024-03-23T13:06:12;100603.50;;;17.38;52.50
6020;BME280;3038;51.122;6.840;2024-03-23T13:08:37;100609.25;;;17.81;46.80
6020;BME280;3038;51.122;6.840;2024-03-23T13:11:02;100600.34;;;18.52;47.80
6020;BME280;3038;51.122;6.840;2024-03-23T13:13:28;100599.97;;;19.12;46.69
6020;BME280;3038;51.122;6.840;2024-03-23T13:15:53;100603.47;;;19.37;42.42
6020;BME280;3038;51.122;6.840;2024-03-23T13:18:19;100599.19;;;19.05;40.21
6020;BME280;3038;51.122;6.840;2024-03-23T13:20:44;100605.44;;;19.23;42.71
6020;BME280;3038;51.122;6.840;2024-03-23T13:23:09;100602.09;;;19.53;41.65
6020;BME280;3038;51.122;6.840;2024-03-23T13:25:35;100621.25;;;15.97;46.29
6020;BME280;3038;51.122;6.840;2024-03-23T13:28:02;100617.13;;;15.66;48.08
6020;BME280;3038;51.122;6.840;2024-03-23T13:30:28;100616.25;;;13.33;52.29
6020;BME280;3038;51.122;6.840;2024-03-23T13:32:53;100609.06;;;11.78;54.61
6020;BME280;3038;51.122;6.840;2024-03-23T13:35:18;100606.34;;;10.98;58.89
6020;BME280;3038;51.122;6.840;2024-03-23T13:37:44;100595.06;;;10.29;61.80
6020;BME280;3038;51.122;6.840;2024-03-23T13:40:10;100592.31;;;10.05;61.15
6020;BME280;3038;51.122;6.840;2024-03-23T13:42:35;100589.28;;;9.66;62.64
6020;BME280;3038;51.122;6.840;2024-03-23T13:45:02;100593.47;;;9.68;61.65
6020;BME280;3038;51.122;6.840;2024-03-23T13:47:27;100594.75;;;9.64;60.89
6020;BME280;3038;51.122;6.840;2024-03-23T13:49:53;100597.63;;;9.45;64.22
6020;BME280;3038;51.122;6.840;2024-03-23T13:52:18;100597.16;;;9.49;64.80
6020;BME280;3038;51.122;6.840;2024-03-23T13:54:48;100598.91;;;9.41;66.95
6020;BME280;3038;51.122;6.840;2024-03-23T13:57:13;100601.47;;;9.07;68.15
6020;BME280;3038;51.122;6.840;2024-03-23T13:59:38;100597.16;;;8.88;73.07
6020;BME280;3038;51.122;6.840;2024-03-23T14:02:04;100597.19;;;11.01;68.08
6020;BME280;3038;51.122;6.840;2024-03-23T14:04:29;100597.94;;;12.84;62.81
6020;BME280;3038;51.122;6.840;2024-03-23T14:06:54;100579.75;;;12.65;59.94
6020;BME280;3038;51.122;6.840;2024-03-23T14:09:20;100583.03;;;14.97;54.81